Terminal Aerodrome Forecast
Issued by NWS

Home | Current Version | Previous Version | Graphics & Text | Print | Product List | Glossary On
Versions: 1 2 3 4 5 6 7 8 9 10 11 12 13 14 15 16 17 18
000
FTUS43 KBIS 240957 AAC
TAFDIK
TAF AMD
KDIK 240957Z 2410/2506 20005KT 1/4SM FG BKN002
     FM241200 03005KT 2SM BR SCT002
     FM241500 02005KT P6SM SCT040
     FM241900 09006KT P6SM SCT100
     FM250500 13011KT P6SM SCT030=

USA.gov is the U.S. government's official web portal to all federal, state and local government web resources and services.